sensor_id;sensor_type;location;lat;lon;timestamp;pressure;altitude;pressure_sealevel;temperature;humidity
68169;BME280;54981;50.206;15.978;2023-06-26T00:00:29;60100.03;;;-145.37;100.00
68169;BME280;54981;50.206;15.978;2023-06-26T00:03:00;60100.03;;;-145.37;100.00
68169;BME280;54981;50.206;15.978;2023-06-26T00:05:30;60100.03;;;-145.37;100.00
68169;BME280;54981;50.206;15.978;2023-06-26T00:08:01;60100.03;;;-145.37;100.00
68169;BME280;54981;50.206;15.978;2023-06-26T00:10:31;60100.03;;;-145.37;100.00
68169;BME280;54981;50.206;15.978;2023-06-26T00:13:02;60100.03;;;-145.37;100.00
68169;BME280;54981;50.206;15.978;2023-06-26T00:15:33;60100.03;;;-145.37;100.00
68169;BME280;54981;50.206;15.978;2023-06-26T00:18:03;60100.03;;;-145.37;100.00
68169;BME280;54981;50.206;15.978;2023-06-26T00:20:34;60100.03;;;-145.37;100.00
68169;BME280;54981;50.206;15.978;2023-06-26T00:23:04;60100.03;;;-145.37;100.00
68169;BME280;54981;50.206;15.978;2023-06-26T00:25:37;60100.03;;;-145.37;100.00
68169;BME280;54981;50.206;15.978;2023-06-26T00:28:07;60100.03;;;-145.37;100.00
68169;BME280;54981;50.206;15.978;2023-06-26T00:30:38;60100.03;;;-145.37;100.00
68169;BME280;54981;50.206;15.978;2023-06-26T00:33:08;60100.03;;;-145.37;100.00
68169;BME280;54981;50.206;15.978;2023-06-26T00:35:39;60100.03;;;-145.37;100.00
68169;BME280;54981;50.206;15.978;2023-06-26T00:38:09;60100.03;;;-145.37;100.00
68169;BME280;54981;50.206;15.978;2023-06-26T00:40:39;60100.03;;;-145.37;100.00
68169;BME280;54981;50.206;15.978;2023-06-26T00:43:10;60100.03;;;-145.37;100.00
68169;BME280;54981;50.206;15.978;2023-06-26T00:45:40;60100.03;;;-145.37;100.00
68169;BME280;54981;50.206;15.978;2023-06-26T00:48:11;60100.03;;;-145.37;100.00
68169;BME280;54981;50.206;15.978;2023-06-26T00:50:45;60100.03;;;-145.37;100.00
68169;BME280;54981;50.206;15.978;2023-06-26T00:53:15;60100.03;;;-145.37;100.00
68169;BME280;54981;50.206;15.978;2023-06-26T00:55:46;60100.03;;;-145.37;100.00
68169;BME280;54981;50.206;15.978;2023-06-26T00:58:16;60100.03;;;-145.37;100.00
68169;BME280;54981;50.206;15.978;2023-06-26T01:00:47;60100.03;;;-145.37;100.00
68169;BME280;54981;50.206;15.978;2023-06-26T01:03:17;60100.03;;;-145.37;100.00
68169;BME280;54981;50.206;15.978;2023-06-26T01:05:48;60100.03;;;-145.37;100.00
68169;BME280;54981;50.206;15.978;2023-06-26T01:08:20;60100.03;;;-145.37;100.00
68169;BME280;54981;50.206;15.978;2023-06-26T01:10:50;60100.03;;;-145.37;100.00
68169;BME280;54981;50.206;15.978;2023-06-26T01:13:22;60100.03;;;-145.37;100.00
68169;BME280;54981;50.206;15.978;2023-06-26T01:15:53;60100.03;;;-145.37;100.00
68169;BME280;54981;50.206;15.978;2023-06-26T01:18:25;60100.03;;;-145.37;100.00
68169;BME280;54981;50.206;15.978;2023-06-26T01:20:56;60100.03;;;-145.37;100.00
68169;BME280;54981;50.206;15.978;2023-06-26T01:23:38;60100.03;;;-145.37;100.00
68169;BME280;54981;50.206;15.978;2023-06-26T01:26:19;60100.03;;;-145.37;100.00
68169;BME280;54981;50.206;15.978;2023-06-26T01:28:51;60100.03;;;-145.37;100.00
68169;BME280;54981;50.206;15.978;2023-06-26T01:31:24;60100.03;;;-145.37;100.00
68169;BME280;54981;50.206;15.978;2023-06-26T01:33:54;60100.03;;;-145.37;100.00
68169;BME280;54981;50.206;15.978;2023-06-26T01:36:25;60100.03;;;-145.37;100.00
68169;BME280;54981;50.206;15.978;2023-06-26T01:38:55;60100.03;;;-145.37;100.00
68169;BME280;54981;50.206;15.978;2023-06-26T01:41:26;60100.03;;;-145.37;100.00
68169;BME280;54981;50.206;15.978;2023-06-26T01:46:43;60100.03;;;-145.37;100.00
68169;BME280;54981;50.206;15.978;2023-06-26T01:49:28;60100.03;;;-145.37;100.00
68169;BME280;54981;50.206;15.978;2023-06-26T01:54:53;60100.03;;;-145.37;100.00
68169;BME280;54981;50.206;15.978;2023-06-26T01:57:26;60100.03;;;-145.37;100.00
68169;BME280;54981;50.206;15.978;2023-06-26T01:59:59;60100.03;;;-145.37;100.00
68169;BME280;54981;50.206;15.978;2023-06-26T02:02:29;60100.03;;;-145.37;100.00
68169;BME280;54981;50.206;15.978;2023-06-26T02:05:00;60100.03;;;-145.37;100.00
68169;BME280;54981;50.206;15.978;2023-06-26T02:07:30;60100.03;;;-145.37;100.00
68169;BME280;54981;50.206;15.978;2023-06-26T02:10:02;60100.03;;;-145.37;100.00
68169;BME280;54981;50.206;15.978;2023-06-26T02:12:32;60100.03;;;-145.37;100.00
68169;BME280;54981;50.206;15.978;2023-06-26T02:15:03;60100.03;;;-145.37;100.00
68169;BME280;54981;50.206;15.978;2023-06-26T02:17:34;60100.03;;;-145.37;100.00
68169;BME280;54981;50.206;15.978;2023-06-26T02:20:05;60100.03;;;-145.37;100.00
68169;BME280;54981;50.206;15.978;2023-06-26T02:22:37;60100.03;;;-145.37;100.00
68169;BME280;54981;50.206;15.978;2023-06-26T02:25:08;60100.03;;;-145.37;100.00
68169;BME280;54981;50.206;15.978;2023-06-26T02:27:39;60100.03;;;-145.37;100.00
68169;BME280;54981;50.206;15.978;2023-06-26T02:30:10;60100.03;;;-145.37;100.00
68169;BME280;54981;50.206;15.978;2023-06-26T02:32:40;60100.03;;;-145.37;100.00
68169;BME280;54981;50.206;15.978;2023-06-26T02:35:11;60100.03;;;-145.37;100.00
68169;BME280;54981;50.206;15.978;2023-06-26T02:37:41;60100.03;;;-145.37;100.00
68169;BME280;54981;50.206;15.978;2023-06-26T02:40:12;60100.03;;;-145.37;100.00
68169;BME280;54981;50.206;15.978;2023-06-26T02:42:42;60100.03;;;-145.37;100.00
68169;BME280;54981;50.206;15.978;2023-06-26T02:45:12;60100.03;;;-145.37;100.00
68169;BME280;54981;50.206;15.978;2023-06-26T02:47:43;60100.03;;;-145.37;100.00
68169;BME280;54981;50.206;15.978;2023-06-26T02:50:13;60100.03;;;-145.37;100.00
68169;BME280;54981;50.206;15.978;2023-06-26T02:52:44;60100.03;;;-145.37;100.00
68169;BME280;54981;50.206;15.978;2023-06-26T02:55:14;60100.03;;;-145.37;100.00
68169;BME280;54981;50.206;15.978;2023-06-26T02:57:44;60100.03;;;-145.37;100.00
68169;BME280;54981;50.206;15.978;2023-06-26T03:00:15;60100.03;;;-145.37;100.00
68169;BME280;54981;50.206;15.978;2023-06-26T03:02:45;60100.03;;;-145.37;100.00
68169;BME280;54981;50.206;15.978;2023-06-26T03:05:16;60100.03;;;-145.37;100.00
68169;BME280;54981;50.206;15.978;2023-06-26T03:07:46;60100.03;;;-145.37;100.00
68169;BME280;54981;50.206;15.978;2023-06-26T03:10:17;60100.03;;;-145.37;100.00
68169;BME280;54981;50.206;15.978;2023-06-26T03:12:47;60100.03;;;-145.37;100.00
68169;BME280;54981;50.206;15.978;2023-06-26T03:15:17;60100.03;;;-145.37;100.00
68169;BME280;54981;50.206;15.978;2023-06-26T03:17:49;60100.03;;;-145.37;100.00
68169;BME280;54981;50.206;15.978;2023-06-26T03:20:19;60100.03;;;-145.37;100.00
68169;BME280;54981;50.206;15.978;2023-06-26T03:22:50;60100.03;;;-145.37;100.00
68169;BME280;54981;50.206;15.978;2023-06-26T03:25:20;60100.03;;;-145.37;100.00
68169;BME280;54981;50.206;15.978;2023-06-26T03:27:51;60100.03;;;-145.37;100.00
68169;BME280;54981;50.206;15.978;2023-06-26T03:30:21;60100.03;;;-145.37;100.00
68169;BME280;54981;50.206;15.978;2023-06-26T03:32:52;60100.03;;;-145.37;100.00
68169;BME280;54981;50.206;15.978;2023-06-26T03:35:22;60100.03;;;-145.37;100.00
68169;BME280;54981;50.206;15.978;2023-06-26T03:37:53;60100.03;;;-145.37;100.00
68169;BME280;54981;50.206;15.978;2023-06-26T03:40:24;60100.03;;;-145.37;100.00
68169;BME280;54981;50.206;15.978;2023-06-26T03:42:55;60100.03;;;-145.37;100.00
68169;BME280;54981;50.206;15.978;2023-06-26T03:45:25;60100.03;;;-145.37;100.00
68169;BME280;54981;50.206;15.978;2023-06-26T03:47:58;60100.03;;;-145.37;100.00
68169;BME280;54981;50.206;15.978;2023-06-26T03:50:29;60100.03;;;-145.37;100.00
68169;BME280;54981;50.206;15.978;2023-06-26T03:52:59;60100.03;;;-145.37;100.00
68169;BME280;54981;50.206;15.978;2023-06-26T03:55:29;60100.03;;;-145.37;100.00
68169;BME280;54981;50.206;15.978;2023-06-26T03:58:00;60100.03;;;-145.37;100.00
68169;BME280;54981;50.206;15.978;2023-06-26T04:00:30;60100.03;;;-145.37;100.00
68169;BME280;54981;50.206;15.978;2023-06-26T04:03:01;60100.03;;;-145.37;100.00
68169;BME280;54981;50.206;15.978;2023-06-26T04:05:33;60100.03;;;-145.37;100.00
68169;BME280;54981;50.206;15.978;2023-06-26T04:08:03;60100.03;;;-145.37;100.00
68169;BME280;54981;50.206;15.978;2023-06-26T04:10:34;60100.03;;;-145.37;100.00
68169;BME280;54981;50.206;15.978;2023-06-26T04:13:06;60100.03;;;-145.37;100.00
68169;BME280;54981;50.206;15.978;2023-06-26T04:15:36;60100.03;;;-145.37;100.00
68169;BME280;54981;50.206;15.978;2023-06-26T04:18:07;60100.03;;;-145.37;100.00
68169;BME280;54981;50.206;15.978;2023-06-26T04:21:03;60100.03;;;-145.37;100.00
68169;BME280;54981;50.206;15.978;2023-06-26T04:23:32;60100.03;;;-145.37;100.00
68169;BME280;54981;50.206;15.978;2023-06-26T04:26:03;60100.03;;;-145.37;100.00
68169;BME280;54981;50.206;15.978;2023-06-26T04:28:35;60100.03;;;-145.37;100.00
68169;BME280;54981;50.206;15.978;2023-06-26T04:31:06;60100.03;;;-145.37;100.00
68169;BME280;54981;50.206;15.978;2023-06-26T04:33:37;60100.03;;;-145.37;100.00
68169;BME280;54981;50.206;15.978;2023-06-26T04:36:07;60100.03;;;-145.37;100.00
68169;BME280;54981;50.206;15.978;2023-06-26T04:38:38;60100.03;;;-145.37;100.00
68169;BME280;54981;50.206;15.978;2023-06-26T04:41:08;60100.03;;;-145.37;100.00
68169;BME280;54981;50.206;15.978;2023-06-26T04:43:39;60100.03;;;-145.37;100.00
68169;BME280;54981;50.206;15.978;2023-06-26T04:46:09;60100.03;;;-145.37;100.00
68169;BME280;54981;50.206;15.978;2023-06-26T04:48:40;60100.03;;;-145.37;100.00
68169;BME280;54981;50.206;15.978;2023-06-26T04:51:11;60100.03;;;-145.37;100.00
68169;BME280;54981;50.206;15.978;2023-06-26T04:53:41;60100.03;;;-145.37;100.00
68169;BME280;54981;50.206;15.978;2023-06-26T04:56:12;60100.03;;;-145.37;100.00
68169;BME280;54981;50.206;15.978;2023-06-26T04:58:45;60100.03;;;-145.37;100.00
68169;BME280;54981;50.206;15.978;2023-06-26T05:01:15;60100.03;;;-145.37;100.00
68169;BME280;54981;50.206;15.978;2023-06-26T05:03:46;60100.03;;;-145.37;100.00
68169;BME280;54981;50.206;15.978;2023-06-26T05:06:17;60100.03;;;-145.37;100.00
68169;BME280;54981;50.206;15.978;2023-06-26T05:08:48;60100.03;;;-145.37;100.00
68169;BME280;54981;50.206;15.978;2023-06-26T05:11:18;60100.03;;;-145.37;100.00
68169;BME280;54981;50.206;15.978;2023-06-26T05:13:49;60100.03;;;-145.37;100.00
68169;BME280;54981;50.206;15.978;2023-06-26T05:16:20;60100.03;;;-145.37;100.00
68169;BME280;54981;50.206;15.978;2023-06-26T05:18:50;60100.03;;;-145.37;100.00
68169;BME280;54981;50.206;15.978;2023-06-26T05:21:21;60100.03;;;-145.37;100.00
68169;BME280;54981;50.206;15.978;2023-06-26T05:23:55;60100.03;;;-145.37;100.00
68169;BME280;54981;50.206;15.978;2023-06-26T05:26:26;60100.03;;;-145.37;100.00
68169;BME280;54981;50.206;15.978;2023-06-26T05:28:57;60100.03;;;-145.37;100.00
68169;BME280;54981;50.206;15.978;2023-06-26T05:31:28;60100.03;;;-145.37;100.00
68169;BME280;54981;50.206;15.978;2023-06-26T05:34:02;60100.03;;;-145.37;100.00
68169;BME280;54981;50.206;15.978;2023-06-26T05:36:34;60100.03;;;-145.37;100.00
68169;BME280;54981;50.206;15.978;2023-06-26T05:39:05;60100.03;;;-145.37;100.00
68169;BME280;54981;50.206;15.978;2023-06-26T05:41:36;60100.03;;;-145.37;100.00
68169;BME280;54981;50.206;15.978;2023-06-26T05:44:06;60100.03;;;-145.37;100.00
68169;BME280;54981;50.206;15.978;2023-06-26T05:46:37;60100.03;;;-145.37;100.00
68169;BME280;54981;50.206;15.978;2023-06-26T05:49:08;60100.03;;;-145.37;100.00
68169;BME280;54981;50.206;15.978;2023-06-26T05:51:38;60100.03;;;-145.37;100.00
68169;BME280;54981;50.206;15.978;2023-06-26T05:54:09;60100.03;;;-145.37;100.00
68169;BME280;54981;50.206;15.978;2023-06-26T05:56:42;60100.03;;;-145.37;100.00
68169;BME280;54981;50.206;15.978;2023-06-26T05:59:14;60100.03;;;-145.37;100.00
68169;BME280;54981;50.206;15.978;2023-06-26T06:01:45;60100.03;;;-145.37;100.00
68169;BME280;54981;50.206;15.978;2023-06-26T06:04:15;60100.03;;;-145.37;100.00
68169;BME280;54981;50.206;15.978;2023-06-26T06:06:46;60100.03;;;-145.37;100.00
68169;BME280;54981;50.206;15.978;2023-06-26T06:09:16;60100.03;;;-145.37;100.00
68169;BME280;54981;50.206;15.978;2023-06-26T06:11:47;60100.03;;;-145.37;100.00
68169;BME280;54981;50.206;15.978;2023-06-26T06:14:17;60100.03;;;-145.37;100.00
68169;BME280;54981;50.206;15.978;2023-06-26T06:16:48;60100.03;;;-145.37;100.00
68169;BME280;54981;50.206;15.978;2023-06-26T06:19:18;60100.03;;;-145.37;100.00
68169;BME280;54981;50.206;15.978;2023-06-26T06:40:13;98863.81;;;22.03;100.00
68169;BME280;54981;50.206;15.978;2023-06-26T06:49:25;98846.66;;;24.29;100.00
68169;BME280;54981;50.206;15.978;2023-06-26T06:51:55;98846.31;;;24.79;100.00
68169;BME280;54981;50.206;15.978;2023-06-26T06:54:26;98844.84;;;25.31;100.00
68169;BME280;54981;50.206;15.978;2023-06-26T06:56:57;98849.97;;;25.49;100.00
68169;BME280;54981;50.206;15.978;2023-06-26T06:59:28;98851.78;;;25.57;100.00
68169;BME280;54981;50.206;15.978;2023-06-26T07:01:58;98849.44;;;25.54;100.00
68169;BME280;54981;50.206;15.978;2023-06-26T07:04:28;98852.50;;;25.04;100.00
68169;BME280;54981;50.206;15.978;2023-06-26T07:06:59;98854.13;;;25.14;100.00
68169;BME280;54981;50.206;15.978;2023-06-26T07:09:29;98841.84;;;25.64;100.00
68169;BME280;54981;50.206;15.978;2023-06-26T07:11:59;98847.66;;;25.84;100.00
68169;BME280;54981;50.206;15.978;2023-06-26T07:14:30;98842.69;;;25.18;100.00
68169;BME280;54981;50.206;15.978;2023-06-26T07:17:00;98835.69;;;25.24;100.00
68169;BME280;54981;50.206;15.978;2023-06-26T07:19:31;98841.09;;;25.55;100.00
68169;BME280;54981;50.206;15.978;2023-06-26T07:22:01;98839.97;;;25.18;100.00
68169;BME280;54981;50.206;15.978;2023-06-26T07:24:31;98839.28;;;25.24;96.97
68169;BME280;54981;50.206;15.978;2023-06-26T07:27:02;98836.59;;;25.62;91.81
68169;BME280;54981;50.206;15.978;2023-06-26T07:29:33;98838.72;;;25.52;93.78
68169;BME280;54981;50.206;15.978;2023-06-26T07:32:03;98829.66;;;25.75;92.53
68169;BME280;54981;50.206;15.978;2023-06-26T07:34:34;98834.94;;;25.76;97.52
68169;BME280;54981;50.206;15.978;2023-06-26T07:37:04;98826.34;;;25.64;96.02
68169;BME280;54981;50.206;15.978;2023-06-26T07:39:35;98827.16;;;25.50;97.08
68169;BME280;54981;50.206;15.978;2023-06-26T07:42:05;98831.56;;;25.51;99.80
68169;BME280;54981;50.206;15.978;2023-06-26T07:44:35;98824.09;;;26.06;96.63
68169;BME280;54981;50.206;15.978;2023-06-26T07:47:06;98825.06;;;26.58;94.01
68169;BME280;54981;50.206;15.978;2023-06-26T07:49:36;98823.47;;;26.48;90.03
68169;BME280;54981;50.206;15.978;2023-06-26T07:52:09;98820.03;;;27.12;89.51
68169;BME280;54981;50.206;15.978;2023-06-26T07:54:41;98814.09;;;27.45;83.17
68169;BME280;54981;50.206;15.978;2023-06-26T07:57:11;98814.03;;;27.38;79.47
68169;BME280;54981;50.206;15.978;2023-06-26T07:59:42;98806.47;;;27.19;77.26
68169;BME280;54981;50.206;15.978;2023-06-26T08:02:13;98813.81;;;27.61;80.43
68169;BME280;54981;50.206;15.978;2023-06-26T08:04:43;98809.53;;;28.02;74.61
68169;BME280;54981;50.206;15.978;2023-06-26T08:07:14;98804.47;;;27.77;75.83
68169;BME280;54981;50.206;15.978;2023-06-26T08:09:44;98802.38;;;28.01;75.25
68169;BME280;54981;50.206;15.978;2023-06-26T08:12:15;98798.28;;;28.53;67.72
68169;BME280;54981;50.206;15.978;2023-06-26T08:14:45;98802.16;;;28.72;67.44
68169;BME280;54981;50.206;15.978;2023-06-26T08:17:15;98812.19;;;29.06;62.99
68169;BME280;54981;50.206;15.978;2023-06-26T08:19:46;98799.34;;;29.14;61.92
68169;BME280;54981;50.206;15.978;2023-06-26T08:22:16;98802.03;;;28.94;60.93
68169;BME280;54981;50.206;15.978;2023-06-26T08:24:46;98796.88;;;28.71;61.70
68169;BME280;54981;50.206;15.978;2023-06-26T08:27:17;98797.03;;;29.11;63.42
68169;BME280;54981;50.206;15.978;2023-06-26T08:29:47;98796.41;;;29.08;59.66
68169;BME280;54981;50.206;15.978;2023-06-26T08:32:17;98788.16;;;29.15;57.21
68169;BME280;54981;50.206;15.978;2023-06-26T08:34:48;98790.72;;;29.23;56.62
68169;BME280;54981;50.206;15.978;2023-06-26T08:37:18;98780.63;;;28.62;59.63
68169;BME280;54981;50.206;15.978;2023-06-26T08:39:48;98776.13;;;27.57;64.06
68169;BME280;54981;50.206;15.978;2023-06-26T08:42:19;98785.53;;;28.04;60.43
68169;BME280;54981;50.206;15.978;2023-06-26T08:44:49;98775.19;;;27.71;60.84
68169;BME280;54981;50.206;15.978;2023-06-26T08:47:20;98775.44;;;27.76;62.52
68169;BME280;54981;50.206;15.978;2023-06-26T08:50:13;98773.38;;;28.13;61.34
68169;BME280;54981;50.206;15.978;2023-06-26T08:52:53;98771.66;;;28.06;66.91
68169;BME280;54981;50.206;15.978;2023-06-26T08:55:27;98773.25;;;27.93;61.52
68169;BME280;54981;50.206;15.978;2023-06-26T08:57:59;98769.06;;;27.69;63.84
68169;BME280;54981;50.206;15.978;2023-06-26T09:00:30;98769.84;;;27.63;70.01
68169;BME280;54981;50.206;15.978;2023-06-26T09:03:02;98762.97;;;27.46;66.66
68169;BME280;54981;50.206;15.978;2023-06-26T09:05:33;98759.34;;;27.38;66.66
68169;BME280;54981;50.206;15.978;2023-06-26T09:08:04;98758.91;;;27.63;63.01
68169;BME280;54981;50.206;15.978;2023-06-26T09:10:35;98755.28;;;27.56;60.64
68169;BME280;54981;50.206;15.978;2023-06-26T09:13:06;98758.09;;;27.41;59.33
68169;BME280;54981;50.206;15.978;2023-06-26T09:15:46;98760.66;;;27.43;57.22
68169;BME280;54981;50.206;15.978;2023-06-26T09:18:18;98754.91;;;27.66;60.26
68169;BME280;54981;50.206;15.978;2023-06-26T09:20:49;98757.22;;;27.62;57.73
68169;BME280;54981;50.206;15.978;2023-06-26T09:23:21;98757.50;;;28.02;54.88
68169;BME280;54981;50.206;15.978;2023-06-26T09:25:51;98752.88;;;28.37;53.74
68169;BME280;54981;50.206;15.978;2023-06-26T09:28:22;98749.06;;;28.86;49.56
68169;BME280;54981;50.206;15.978;2023-06-26T09:30:52;98748.75;;;29.43;47.34
68169;BME280;54981;50.206;15.978;2023-06-26T09:33:23;98738.44;;;29.78;49.40
68169;BME280;54981;50.206;15.978;2023-06-26T09:35:53;98740.72;;;29.41;49.21
68169;BME280;54981;50.206;15.978;2023-06-26T09:38:23;98739.47;;;29.11;51.43
68169;BME280;54981;50.206;15.978;2023-06-26T09:40:54;98738.19;;;29.06;49.73
68169;BME280;54981;50.206;15.978;2023-06-26T09:43:24;98740.94;;;29.60;48.45
68169;BME280;54981;50.206;15.978;2023-06-26T09:45:56;98726.03;;;30.21;47.83
68169;BME280;54981;50.206;15.978;2023-06-26T09:48:28;98735.38;;;30.71;47.39
68169;BME280;54981;50.206;15.978;2023-06-26T09:51:00;98731.75;;;30.84;45.94
68169;BME280;54981;50.206;15.978;2023-06-26T09:53:30;98730.94;;;30.70;46.36
68169;BME280;54981;50.206;15.978;2023-06-26T09:56:15;98719.00;;;29.73;47.60
68169;BME280;54981;50.206;15.978;2023-06-26T09:58:47;98728.28;;;29.32;50.03
68169;BME280;54981;50.206;15.978;2023-06-26T10:01:17;98728.47;;;29.17;49.70
68169;BME280;54981;50.206;15.978;2023-06-26T10:03:48;98723.84;;;29.11;52.16
68169;BME280;54981;50.206;15.978;2023-06-26T10:06:22;98727.44;;;29.25;52.31
68169;BME280;54981;50.206;15.978;2023-06-26T10:08:56;98725.53;;;29.59;50.50
68169;BME280;54981;50.206;15.978;2023-06-26T10:11:42;98720.88;;;29.39;54.38
68169;BME280;54981;50.206;15.978;2023-06-26T10:14:16;98712.88;;;29.31;51.06
68169;BME280;54981;50.206;15.978;2023-06-26T10:16:49;98709.06;;;29.72;49.84
68169;BME280;54981;50.206;15.978;2023-06-26T10:19:21;98712.31;;;30.21;48.09
68169;BME280;54981;50.206;15.978;2023-06-26T10:21:55;98702.53;;;30.45;47.30
68169;BME280;54981;50.206;15.978;2023-06-26T10:24:28;98713.03;;;29.89;48.47
68169;BME280;54981;50.206;15.978;2023-06-26T10:27:03;98693.69;;;29.71;49.14
68169;BME280;54981;50.206;15.978;2023-06-26T10:29:35;98697.91;;;29.67;49.47
68169;BME280;54981;50.206;15.978;2023-06-26T10:32:07;98700.84;;;29.72;50.04
68169;BME280;54981;50.206;15.978;2023-06-26T10:34:38;98700.00;;;29.31;50.03
68169;BME280;54981;50.206;15.978;2023-06-26T10:37:09;98694.94;;;29.28;49.62
68169;BME280;54981;50.206;15.978;2023-06-26T10:42:19;98687.97;;;29.13;50.41
68169;BME280;54981;50.206;15.978;2023-06-26T10:44:51;98679.47;;;28.74;52.72
68169;BME280;54981;50.206;15.978;2023-06-26T10:47:32;98684.56;;;29.04;50.40
68169;BME280;54981;50.206;15.978;2023-06-26T10:50:24;98668.56;;;29.54;48.79
68169;BME280;54981;50.206;15.978;2023-06-26T10:56:01;98662.84;;;30.34;51.33
68169;BME280;54981;50.206;15.978;2023-06-26T11:06:30;98660.03;;;30.47;47.86
68169;BME280;54981;50.206;15.978;2023-06-26T11:14:32;98635.06;;;31.81;44.31
68169;BME280;54981;50.206;15.978;2023-06-26T11:17:03;98646.34;;;31.29;45.67
68169;BME280;54981;50.206;15.978;2023-06-26T11:19:34;98640.41;;;30.75;48.29
68169;BME280;54981;50.206;15.978;2023-06-26T11:22:05;98639.94;;;30.47;47.36
68169;BME280;54981;50.206;15.978;2023-06-26T11:24:35;98645.22;;;30.87;47.13
68169;BME280;54981;50.206;15.978;2023-06-26T11:27:06;98637.75;;;31.19;45.97
68169;BME280;54981;50.206;15.978;2023-06-26T11:29:36;98636.75;;;31.13;44.89
68169;BME280;54981;50.206;15.978;2023-06-26T11:32:07;98638.59;;;31.19;45.19
68169;BME280;54981;50.206;15.978;2023-06-26T11:34:38;98636.13;;;31.11;44.90
68169;BME280;54981;50.206;15.978;2023-06-26T11:37:08;98636.88;;;31.25;44.29
68169;BME280;54981;50.206;15.978;2023-06-26T11:39:38;98629.88;;;30.72;43.33
68169;BME280;54981;50.206;15.978;2023-06-26T11:42:10;98632.31;;;31.12;45.14
68169;BME280;54981;50.206;15.978;2023-06-26T11:44:42;98634.38;;;30.60;46.60
68169;BME280;54981;50.206;15.978;2023-06-26T11:47:17;98629.22;;;30.39;45.37
68169;BME280;54981;50.206;15.978;2023-06-26T11:49:49;98623.66;;;30.07;44.19
68169;BME280;54981;50.206;15.978;2023-06-26T11:52:19;98627.78;;;30.68;45.33
68169;BME280;54981;50.206;15.978;2023-06-26T11:54:49;98629.91;;;30.97;43.28
68169;BME280;54981;50.206;15.978;2023-06-26T11:57:20;98619.88;;;30.85;44.01
68169;BME280;54981;50.206;15.978;2023-06-26T11:59:50;98615.72;;;30.69;44.61
68169;BME280;54981;50.206;15.978;2023-06-26T12:02:22;98606.97;;;31.10;45.16
68169;BME280;54981;50.206;15.978;2023-06-26T12:04:52;98611.28;;;32.05;44.80
68169;BME280;54981;50.206;15.978;2023-06-26T12:07:22;98606.53;;;32.42;42.52
68169;BME280;54981;50.206;15.978;2023-06-26T12:09:53;98613.63;;;31.65;43.56
68169;BME280;54981;50.206;15.978;2023-06-26T12:12:24;98611.19;;;31.31;43.74
68169;BME280;54981;50.206;15.978;2023-06-26T12:14:55;98602.75;;;31.08;43.98
68169;BME280;54981;50.206;15.978;2023-06-26T12:17:26;98604.69;;;31.69;42.81
68169;BME280;54981;50.206;15.978;2023-06-26T12:19:56;98598.97;;;31.27;44.95
68169;BME280;54981;50.206;15.978;2023-06-26T12:22:33;98595.75;;;30.55;46.69
68169;BME280;54981;50.206;15.978;2023-06-26T12:25:07;98597.34;;;31.19;45.41
68169;BME280;54981;50.206;15.978;2023-06-26T12:27:37;98602.34;;;31.73;44.93
68169;BME280;54981;50.206;15.978;2023-06-26T12:30:08;98588.72;;;32.57;43.72
68169;BME280;54981;50.206;15.978;2023-06-26T12:32:38;98590.19;;;33.13;40.86
68169;BME280;54981;50.206;15.978;2023-06-26T12:35:09;98589.69;;;33.40;39.79
68169;BME280;54981;50.206;15.978;2023-06-26T12:37:39;98582.84;;;33.07;41.27
68169;BME280;54981;50.206;15.978;2023-06-26T12:40:20;98587.16;;;32.19;44.17
68169;BME280;54981;50.206;15.978;2023-06-26T12:42:53;98588.25;;;32.30;43.02
68169;BME280;54981;50.206;15.978;2023-06-26T12:45:25;98593.44;;;32.68;42.03
68169;BME280;54981;50.206;15.978;2023-06-26T12:48:06;98590.22;;;32.83;41.84
68169;BME280;54981;50.206;15.978;2023-06-26T12:50:43;98582.97;;;33.36;41.76
68169;BME280;54981;50.206;15.978;2023-06-26T12:53:13;98580.78;;;33.85;41.26
68169;BME280;54981;50.206;15.978;2023-06-26T12:55:44;98575.38;;;33.78;39.64
68169;BME280;54981;50.206;15.978;2023-06-26T12:58:14;98576.59;;;33.47;40.37
68169;BME280;54981;50.206;15.978;2023-06-26T13:00:45;98572.53;;;33.26;41.09
68169;BME280;54981;50.206;15.978;2023-06-26T13:03:15;98566.59;;;32.75;41.67
68169;BME280;54981;50.206;15.978;2023-06-26T13:05:45;98566.94;;;32.55;41.63
68169;BME280;54981;50.206;15.978;2023-06-26T13:08:16;98563.66;;;33.24;42.08
68169;BME280;54981;50.206;15.978;2023-06-26T13:10:49;98557.63;;;33.62;40.51
68169;BME280;54981;50.206;15.978;2023-06-26T13:13:20;98546.84;;;34.01;38.14
68169;BME280;54981;50.206;15.978;2023-06-26T13:15:51;98541.47;;;33.94;38.49
68169;BME280;54981;50.206;15.978;2023-06-26T13:18:21;98534.94;;;34.01;40.69
68169;BME280;54981;50.206;15.978;2023-06-26T13:20:51;98534.22;;;34.51;39.40
68169;BME280;54981;50.206;15.978;2023-06-26T13:23:22;98528.06;;;34.77;38.11
68169;BME280;54981;50.206;15.978;2023-06-26T13:25:53;98525.22;;;33.58;39.71
68169;BME280;54981;50.206;15.978;2023-06-26T13:28:23;98529.31;;;32.84;41.53
68169;BME280;54981;50.206;15.978;2023-06-26T13:30:54;98523.31;;;32.52;40.37
68169;BME280;54981;50.206;15.978;2023-06-26T13:33:24;98518.78;;;32.70;41.87
68169;BME280;54981;50.206;15.978;2023-06-26T13:35:55;98509.41;;;32.71;41.95
68169;BME280;54981;50.206;15.978;2023-06-26T13:38:29;98504.72;;;32.17;42.34
68169;BME280;54981;50.206;15.978;2023-06-26T13:40:59;98504.84;;;32.53;42.51
68169;BME280;54981;50.206;15.978;2023-06-26T13:43:30;98500.16;;;32.53;41.40
68169;BME280;54981;50.206;15.978;2023-06-26T13:46:01;98494.22;;;33.67;40.42